createdAt,value
2022-11-14T00:01:36.954Z,40.70
2022-11-14T00:04:09.238Z,45.60
2022-11-14T00:06:41.063Z,37.00
2022-11-14T00:09:12.765Z,46.20
2022-11-14T00:11:44.330Z,49.70
2022-11-14T00:14:16.124Z,49.90
2022-11-14T00:16:48.383Z,47.00
2022-11-14T00:19:20.071Z,43.10
2022-11-14T00:21:52.681Z,46.80
2022-11-14T00:24:24.870Z,46.50
2022-11-14T00:26:56.673Z,39.60
2022-11-14T00:29:28.444Z,51.30
2022-11-14T00:32:00.150Z,43.20
2022-11-14T00:34:31.791Z,40.20
2022-11-14T00:37:03.950Z,47.20
2022-11-14T00:39:35.886Z,54.30
2022-11-14T00:42:07.818Z,49.60
2022-11-14T00:44:39.473Z,50.30
2022-11-14T00:47:11.125Z,49.70
2022-11-14T00:49:42.935Z,43.60
2022-11-14T00:52:14.713Z,41.40
2022-11-14T00:54:46.349Z,44.90
2022-11-14T00:57:17.958Z,50.50
2022-11-14T00:59:49.602Z,38.60
2022-11-14T01:02:21.302Z,44.10
2022-11-14T01:04:53.037Z,42.80
2022-11-14T01:07:24.670Z,43.60
2022-11-14T01:09:56.276Z,45.60
2022-11-14T01:12:27.993Z,43.60
2022-11-14T01:14:59.777Z,42.70
2022-11-14T01:17:31.406Z,43.30
2022-11-14T01:20:03.062Z,42.30
2022-11-14T01:22:35.759Z,41.90
2022-11-14T01:25:09.058Z,46.80
2022-11-14T01:27:40.898Z,46.30
2022-11-14T01:33:10.424Z,35.90
2022-11-14T01:35:41.925Z,38.90
2022-11-14T01:38:16.013Z,35.00
2022-11-14T01:40:48.027Z,35.30
2022-11-14T01:43:31.859Z,35.70
2022-11-14T01:46:06.774Z,37.90
2022-11-14T01:48:44.097Z,37.60
2022-11-14T01:51:25.607Z,37.40
2022-11-14T01:54:00.032Z,42.00
2022-11-14T01:56:35.032Z,37.60
2022-11-14T01:59:09.909Z,37.30
2022-11-14T02:01:46.916Z,39.70
2022-11-14T02:04:22.107Z,40.60
2022-11-14T02:06:56.571Z,42.40
2022-11-14T02:09:29.550Z,41.60
2022-11-14T02:12:02.801Z,45.90
2022-11-14T02:14:36.929Z,51.30
2022-11-14T02:17:28.334Z,45.70
2022-11-14T02:20:19.381Z,35.30
2022-11-14T02:22:51.094Z,39.70
2022-11-14T02:25:22.825Z,32.20
2022-11-14T02:27:54.448Z,32.90
2022-11-14T02:30:26.599Z,39.20
2022-11-14T02:33:10.508Z,44.10
2022-11-14T02:35:43.334Z,43.20
2022-11-14T02:38:15.091Z,38.80
2022-11-14T02:40:46.956Z,40.10
2022-11-14T02:43:18.511Z,38.40
2022-11-14T02:45:50.133Z,25.20
2022-11-14T02:48:22.046Z,42.00
2022-11-14T02:50:53.581Z,32.90
2022-11-14T02:53:25.082Z,35.60
2022-11-14T02:55:56.618Z,40.50
2022-11-14T02:58:28.340Z,37.10
2022-11-14T03:01:19.735Z,30.30
2022-11-14T03:03:52.443Z,31.30
2022-11-14T03:06:23.957Z,24.90
2022-11-14T03:08:55.480Z,32.00
2022-11-14T03:11:27.022Z,31.20
2022-11-14T03:14:00.209Z,27.90
2022-11-14T03:16:31.725Z,25.50
2022-11-14T03:19:03.651Z,28.30
2022-11-14T03:21:35.164Z,18.90
2022-11-14T03:24:07.771Z,28.90
2022-11-14T03:26:39.511Z,23.00
2022-11-14T03:29:11.146Z,25.50
2022-11-14T03:31:42.661Z,25.50
2022-11-14T03:34:14.355Z,25.70
2022-11-14T03:36:45.956Z,26.90
2022-11-14T03:39:19.622Z,20.50
2022-11-14T03:44:21.117Z,27.70
2022-11-14T03:46:53.934Z,31.20
2022-11-14T03:49:25.473Z,25.00
2022-11-14T03:51:56.984Z,27.00
2022-11-14T03:54:28.509Z,22.30
2022-11-14T03:57:00.052Z,19.80
2022-11-14T03:59:31.541Z,26.00
2022-11-14T04:02:03.122Z,15.30
2022-11-14T04:04:34.666Z,19.50
2022-11-14T04:07:06.648Z,24.50
2022-11-14T04:09:38.334Z,25.70
2022-11-14T04:12:15.510Z,27.40
2022-11-14T04:14:47.447Z,24.70
2022-11-14T04:17:19.153Z,22.70
2022-11-14T04:19:50.695Z,19.00
2022-11-14T04:22:22.225Z,22.20
2022-11-14T04:24:53.771Z,29.20
2022-11-14T04:27:25.321Z,20.50
2022-11-14T04:29:56.906Z,31.40
2022-11-14T04:32:28.485Z,26.00
2022-11-14T04:35:00.226Z,26.10
2022-11-14T04:37:31.800Z,25.40
2022-11-14T04:40:03.435Z,21.80
2022-11-14T04:42:34.934Z,21.00
2022-11-14T04:45:08.705Z,24.60
2022-11-14T04:47:42.162Z,25.30
2022-11-14T04:50:13.961Z,22.40
2022-11-14T04:52:45.489Z,27.10
2022-11-14T04:55:17.197Z,26.70
2022-11-14T04:57:48.784Z,22.20
2022-11-14T05:00:21.395Z,34.50
2022-11-14T05:02:53.134Z,30.00
2022-11-14T05:05:24.658Z,23.90
2022-11-14T05:07:56.626Z,28.20
2022-11-14T05:10:28.304Z,35.80
2022-11-14T05:12:59.834Z,28.10
2022-11-14T05:15:31.778Z,26.30
2022-11-14T05:18:03.393Z,28.70
2022-11-14T05:20:34.932Z,31.40
2022-11-14T05:23:06.463Z,24.60
2022-11-14T05:25:38.127Z,25.00
2022-11-14T05:28:09.790Z,19.40
2022-11-14T05:30:41.462Z,33.10
2022-11-14T05:33:13.065Z,31.50
2022-11-14T05:35:44.786Z,32.20
2022-11-14T05:38:16.329Z,18.60
2022-11-14T05:40:47.957Z,29.30
2022-11-14T05:43:19.607Z,30.50
2022-11-14T05:45:51.203Z,24.60
2022-11-14T05:48:22.705Z,26.10
2022-11-14T05:50:57.691Z,30.20
2022-11-14T05:53:31.635Z,31.90
2022-11-14T05:56:05.187Z,33.30
2022-11-14T06:01:09.437Z,26.30
2022-11-14T06:03:43.457Z,36.50
2022-11-14T06:06:18.099Z,30.50
2022-11-14T06:08:49.973Z,21.40
2022-11-14T06:11:22.894Z,20.90
2022-11-14T06:13:54.973Z,23.80
2022-11-14T06:16:26.649Z,29.10
2022-11-14T06:18:58.349Z,17.70
2022-11-14T06:21:29.881Z,25.00
2022-11-14T06:24:01.519Z,23.60
2022-11-14T06:26:34.019Z,21.40
2022-11-14T06:29:05.878Z,21.90
2022-11-14T06:31:37.380Z,24.30
2022-11-14T06:34:08.983Z,26.30
2022-11-14T06:36:40.573Z,27.10
2022-11-14T06:39:12.224Z,21.40
2022-11-14T06:41:43.715Z,28.80
2022-11-14T06:44:15.880Z,19.70
2022-11-14T06:46:47.500Z,25.00
2022-11-14T06:49:19.039Z,18.60
2022-11-14T06:51:50.655Z,16.90
2022-11-14T06:54:22.481Z,18.20
2022-11-14T06:56:54.003Z,22.90
2022-11-14T06:59:25.563Z,26.20
2022-11-14T07:01:57.233Z,22.60
2022-11-14T07:04:28.830Z,17.90
2022-11-14T07:07:00.401Z,16.50
2022-11-14T07:09:31.896Z,22.60
2022-11-14T07:12:03.594Z,28.70
2022-11-14T07:14:35.263Z,24.00
2022-11-14T07:17:06.812Z,21.60
2022-11-14T07:19:38.326Z,25.40
2022-11-14T07:22:09.950Z,23.40
2022-11-14T07:24:41.503Z,28.10
2022-11-14T07:27:13.177Z,28.30
2022-11-14T07:29:44.866Z,28.90
2022-11-14T07:32:16.728Z,25.90
2022-11-14T07:34:48.283Z,26.80
2022-11-14T07:37:19.871Z,21.60
2022-11-14T07:39:51.419Z,22.30
2022-11-14T07:42:23.196Z,24.40
2022-11-14T07:44:54.909Z,30.10
2022-11-14T07:47:27.760Z,24.50
2022-11-14T07:49:59.432Z,34.60
2022-11-14T07:52:31.461Z,23.50
2022-11-14T07:55:03.031Z,27.10
2022-11-14T07:57:40.325Z,24.80
2022-11-14T08:00:17.033Z,28.90
2022-11-14T08:02:49.948Z,27.10
2022-11-14T08:05:21.814Z,26.00
2022-11-14T08:07:54.757Z,28.10
2022-11-14T08:10:29.759Z,29.70
2022-11-14T08:13:31.117Z,22.40
2022-11-14T08:16:01.126Z,21.90
2022-11-14T08:18:32.749Z,27.80
2022-11-14T08:21:08.300Z,26.10
2022-11-14T08:23:39.938Z,23.60
2022-11-14T08:26:11.533Z,22.50
2022-11-14T08:28:43.283Z,23.20
2022-11-14T08:31:15.398Z,28.70
2022-11-14T08:33:47.105Z,29.90
2022-11-14T08:36:18.722Z,23.60
2022-11-14T08:38:51.684Z,25.30
2022-11-14T08:41:23.762Z,24.60
2022-11-14T08:43:55.380Z,20.40
2022-11-14T08:46:26.874Z,21.20
2022-11-14T08:48:58.373Z,23.10
2022-11-14T08:51:29.890Z,25.00
2022-11-14T08:54:01.506Z,26.70
2022-11-14T08:56:33.099Z,28.80
2022-11-14T08:59:07.388Z,24.50
2022-11-14T09:01:38.931Z,28.40
2022-11-14T09:04:10.523Z,22.30
2022-11-14T09:06:42.191Z,21.80
2022-11-14T09:09:13.988Z,26.60
2022-11-14T09:11:45.735Z,22.10
2022-11-14T09:14:17.316Z,25.80
2022-11-14T09:16:51.059Z,26.90
2022-11-14T09:21:52.850Z,32.00
2022-11-14T09:24:24.562Z,30.40
2022-11-14T09:26:57.162Z,34.20
2022-11-14T09:29:29.176Z,26.90
2022-11-14T09:32:00.723Z,21.80
2022-11-14T09:34:32.305Z,21.20
2022-11-14T09:37:03.840Z,23.30
2022-11-14T09:39:38.019Z,26.10
2022-11-14T09:42:23.022Z,27.30
2022-11-14T09:44:59.006Z,29.90
2022-11-14T09:47:37.497Z,33.50
2022-11-14T09:50:14.769Z,29.20
2022-11-14T09:52:53.337Z,23.20
2022-11-14T09:55:33.746Z,25.30
2022-11-14T09:58:12.830Z,24.30
2022-11-14T10:00:52.754Z,26.40
2022-11-14T10:03:34.665Z,28.20
2022-11-14T10:06:22.681Z,29.70
2022-11-14T10:09:30.972Z,30.00
2022-11-14T10:12:15.349Z,28.10
2022-11-14T10:15:11.757Z,27.10
2022-11-14T10:18:04.643Z,24.90
2022-11-14T10:20:42.893Z,23.60
2022-11-14T10:23:32.738Z,22.30
2022-11-14T10:26:16.564Z,25.30
2022-11-14T10:29:15.469Z,28.70
2022-11-14T10:31:55.650Z,29.60
2022-11-14T10:34:36.090Z,26.80
2022-11-14T10:37:18.295Z,28.20
2022-11-14T10:39:53.835Z,22.70
2022-11-14T10:42:31.326Z,25.00
2022-11-14T10:45:09.092Z,21.60
2022-11-14T10:47:47.481Z,27.10
2022-11-14T10:50:23.086Z,24.70
2022-11-14T10:52:58.766Z,28.80
2022-11-14T10:56:02.615Z,30.70
2022-11-14T10:58:22.565Z,23.20
2022-11-14T11:00:54.482Z,20.70
2022-11-14T11:03:43.780Z,22.60
2022-11-14T11:06:28.330Z,17.30
2022-11-14T11:09:17.583Z,24.40
2022-11-14T11:11:57.620Z,21.30
2022-11-14T11:14:30.242Z,22.20
2022-11-14T11:17:20.773Z,22.70
2022-11-14T11:19:52.458Z,23.90
2022-11-14T11:22:39.306Z,30.00
2022-11-14T11:25:26.123Z,26.40
2022-11-14T11:28:14.987Z,27.60
2022-11-14T11:30:59.338Z,30.80
2022-11-14T11:33:32.754Z,23.60
2022-11-14T11:38:37.471Z,24.70
2022-11-14T11:41:33.213Z,23.30
2022-11-14T11:44:17.684Z,26.60
2022-11-14T11:46:54.838Z,33.50
2022-11-14T11:49:35.813Z,33.40
2022-11-14T11:52:18.150Z,26.00
2022-11-14T11:55:04.859Z,30.70
2022-11-14T11:57:39.903Z,30.30
2022-11-14T12:00:20.421Z,25.80
2022-11-14T12:02:55.038Z,24.60
2022-11-14T12:05:33.455Z,26.50
2022-11-14T12:08:09.769Z,27.50
2022-11-14T12:10:45.827Z,31.10
2022-11-14T12:13:54.056Z,27.90
2022-11-14T12:16:36.645Z,26.10
2022-11-14T12:19:43.315Z,24.50
2022-11-14T12:22:38.746Z,28.40
2022-11-14T12:25:46.082Z,23.20
2022-11-14T12:28:32.736Z,21.90
2022-11-14T12:31:07.008Z,22.40
2022-11-14T12:33:41.926Z,24.30
2022-11-14T12:36:14.406Z,23.50
2022-11-14T12:38:49.409Z,25.50
2022-11-14T12:41:28.247Z,20.40
2022-11-14T12:44:20.745Z,23.30
2022-11-14T12:47:17.532Z,27.70
2022-11-14T12:50:31.412Z,25.50
2022-11-14T12:53:04.092Z,28.90
2022-11-14T12:56:09.098Z,24.60
2022-11-14T12:59:05.715Z,24.30
2022-11-14T13:01:58.039Z,26.20
2022-11-14T13:04:40.497Z,26.90
2022-11-14T13:07:34.290Z,27.90
2022-11-14T13:13:14.895Z,22.40
2022-11-14T13:16:12.743Z,26.80
2022-11-14T13:19:14.821Z,24.70
2022-11-14T13:22:16.844Z,22.70
2022-11-14T13:25:19.340Z,26.60
2022-11-14T13:28:09.030Z,24.30
2022-11-14T13:31:19.276Z,24.40
2022-11-14T13:33:54.177Z,25.30
2022-11-14T13:36:35.953Z,23.70
2022-11-14T13:39:21.727Z,29.40
2022-11-14T13:42:10.557Z,30.90
2022-11-14T13:45:10.207Z,34.20
2022-11-14T13:48:01.202Z,32.70
2022-11-14T13:50:36.824Z,33.00
2022-11-14T13:53:17.466Z,29.20
2022-11-14T13:56:01.475Z,33.40
2022-11-14T14:01:23.491Z,27.70
2022-11-14T14:04:09.602Z,24.80
2022-11-14T14:06:52.462Z,31.90
2022-11-14T14:09:34.165Z,28.90
2022-11-14T14:12:40.049Z,30.90
2022-11-14T14:15:22.281Z,22.10
2022-11-14T14:18:02.747Z,26.40
2022-11-14T14:20:45.387Z,24.20
2022-11-14T14:23:29.287Z,28.30
2022-11-14T14:26:16.240Z,25.60
2022-11-14T14:28:56.431Z,19.60
2022-11-14T14:31:37.393Z,28.10
2022-11-14T14:37:16.110Z,28.90
2022-11-14T14:40:00.566Z,23.10
2022-11-14T14:42:39.697Z,28.70
2022-11-14T14:45:18.725Z,29.10
2022-11-14T14:47:59.463Z,28.40
2022-11-14T14:50:36.478Z,32.60
2022-11-14T14:53:08.737Z,28.00
2022-11-14T14:55:40.406Z,26.70
2022-11-14T14:58:27.801Z,29.40
2022-11-14T15:01:02.494Z,24.40
2022-11-14T15:03:38.041Z,25.60
2022-11-14T15:06:29.887Z,24.70
2022-11-14T15:09:04.035Z,24.10
2022-11-14T15:11:36.180Z,22.80
2022-11-14T15:14:08.071Z,28.60
2022-11-14T15:16:40.082Z,26.40
2022-11-14T15:19:16.662Z,28.50
2022-11-14T15:21:58.178Z,29.40
2022-11-14T15:24:29.923Z,28.90
2022-11-14T15:27:07.184Z,26.60
2022-11-14T15:29:46.488Z,29.40
2022-11-14T15:32:22.127Z,30.60
2022-11-14T15:35:11.374Z,28.80
2022-11-14T15:38:15.594Z,30.00
2022-11-14T15:41:12.729Z,30.40
2022-11-14T15:43:53.164Z,33.60
2022-11-14T15:46:47.144Z,35.30
2022-11-14T15:49:27.170Z,34.90
2022-11-14T15:52:01.518Z,34.90
2022-11-14T15:54:35.250Z,32.70
2022-11-14T15:59:48.267Z,40.90
2022-11-14T16:02:23.083Z,35.90
2022-11-14T16:04:55.549Z,43.40
2022-11-14T16:07:28.238Z,46.20
2022-11-14T16:09:59.906Z,42.20
2022-11-14T16:12:31.508Z,36.50
2022-11-14T16:15:05.326Z,44.20
2022-11-14T16:17:40.503Z,38.00
2022-11-14T16:20:17.308Z,36.90
2022-11-14T16:22:50.734Z,37.30
2022-11-14T16:25:25.365Z,32.90
2022-11-14T16:27:57.175Z,31.10
2022-11-14T16:30:29.021Z,40.30
2022-11-14T16:33:01.233Z,41.90
2022-11-14T16:35:32.787Z,36.30
2022-11-14T16:38:04.303Z,42.20
2022-11-14T16:40:36.129Z,33.00
2022-11-14T16:43:07.682Z,39.30
2022-11-14T16:45:42.428Z,42.70
2022-11-14T16:48:14.018Z,43.20
2022-11-14T16:50:45.562Z,43.60
2022-11-14T16:53:17.095Z,48.20
2022-11-14T16:55:48.615Z,43.20
2022-11-14T16:58:20.260Z,42.70
2022-11-14T17:00:51.826Z,40.00
2022-11-14T17:03:23.712Z,42.80
2022-11-14T17:05:55.457Z,43.10
2022-11-14T17:08:27.002Z,46.60
2022-11-14T17:10:58.480Z,48.30
2022-11-14T17:13:32.081Z,37.60
2022-11-14T17:16:05.066Z,34.20
2022-11-14T17:18:38.693Z,44.10
2022-11-14T17:21:12.387Z,36.30
2022-11-14T17:23:47.542Z,40.60
2022-11-14T17:26:22.261Z,39.10
2022-11-14T17:28:54.081Z,45.20
2022-11-14T17:31:25.630Z,45.80
2022-11-14T17:33:58.995Z,50.70
2022-11-14T17:36:32.326Z,57.30
2022-11-14T17:39:03.874Z,49.10
2022-11-14T17:41:36.233Z,44.20
2022-11-14T17:44:09.881Z,47.50
2022-11-14T17:49:11.713Z,40.40
2022-11-14T17:51:43.458Z,44.60
2022-11-14T17:54:15.096Z,46.70
2022-11-14T17:56:52.259Z,44.40
2022-11-14T17:59:26.349Z,58.90
2022-11-14T18:01:59.915Z,66.80
2022-11-14T18:04:32.226Z,65.50
2022-11-14T18:07:03.901Z,59.60
2022-11-14T18:09:35.647Z,59.90
2022-11-14T18:12:07.883Z,65.20
2022-11-14T18:14:39.429Z,56.40
2022-11-14T18:17:13.096Z,53.20
2022-11-14T18:19:45.109Z,46.60
2022-11-14T18:22:16.783Z,58.50
2022-11-14T18:24:48.275Z,57.00
2022-11-14T18:27:19.808Z,62.20
2022-11-14T18:29:51.378Z,55.30
2022-11-14T18:32:22.905Z,56.80
2022-11-14T18:34:54.415Z,42.00
2022-11-14T18:37:26.190Z,39.00
2022-11-14T18:39:57.733Z,47.40
2022-11-14T18:42:29.296Z,49.00
2022-11-14T18:45:00.905Z,47.80
2022-11-14T18:47:33.545Z,43.20
2022-11-14T18:50:05.814Z,44.50
2022-11-14T18:52:37.371Z,41.10
2022-11-14T18:55:10.257Z,36.60
2022-11-14T18:57:41.802Z,37.40
2022-11-14T19:00:15.861Z,38.90
2022-11-14T19:02:52.219Z,37.80
2022-11-14T19:05:23.865Z,38.20
2022-11-14T19:07:55.526Z,38.40
2022-11-14T19:10:27.221Z,33.80
2022-11-14T19:12:58.885Z,42.60
2022-11-14T19:15:30.402Z,40.50
2022-11-14T19:18:02.454Z,40.80
2022-11-14T19:20:34.121Z,39.70
2022-11-14T19:23:05.630Z,38.90
2022-11-14T19:25:38.734Z,39.70
2022-11-14T19:28:10.310Z,43.80
2022-11-14T19:30:41.904Z,49.90
2022-11-14T19:33:13.510Z,49.50
2022-11-14T19:35:45.034Z,62.80
2022-11-14T19:38:16.599Z,61.60
2022-11-14T19:40:51.042Z,65.50
2022-11-14T19:43:22.716Z,51.60
2022-11-14T19:45:56.294Z,49.10
2022-11-14T19:48:27.842Z,53.90
2022-11-14T19:51:03.808Z,43.70
2022-11-14T19:53:38.958Z,50.20
2022-11-14T19:56:13.361Z,60.10
2022-11-14T19:58:46.452Z,64.80
2022-11-14T20:01:20.037Z,53.90
2022-11-14T20:06:28.943Z,43.20
2022-11-14T20:09:02.314Z,43.10
2022-11-14T20:11:34.043Z,40.90
2022-11-14T20:14:06.649Z,50.00
2022-11-14T20:16:39.501Z,42.50
2022-11-14T20:19:11.887Z,45.10
2022-11-14T20:21:44.067Z,50.50
2022-11-14T20:24:21.553Z,47.40
2022-11-14T20:26:53.471Z,38.80
2022-11-14T20:29:25.275Z,42.90
2022-11-14T20:31:57.110Z,45.10
2022-11-14T20:34:30.140Z,49.60
2022-11-14T20:37:10.936Z,51.70
2022-11-14T20:39:44.490Z,59.70
2022-11-14T20:42:16.164Z,57.80
2022-11-14T20:44:47.855Z,55.00
2022-11-14T20:47:19.840Z,56.40
2022-11-14T20:49:52.146Z,57.10
2022-11-14T20:52:23.936Z,50.50
2022-11-14T20:54:55.668Z,47.80
2022-11-14T20:57:27.373Z,51.60
2022-11-14T20:59:59.127Z,57.10
2022-11-14T21:02:30.821Z,54.50
2022-11-14T21:05:02.841Z,44.80
2022-11-14T21:07:34.815Z,48.90
2022-11-14T21:10:28.097Z,48.80
2022-11-14T21:13:17.654Z,51.10
2022-11-14T21:15:49.165Z,50.50
2022-11-14T21:18:20.730Z,47.70
2022-11-14T21:20:58.464Z,55.50
2022-11-14T21:23:30.703Z,57.60
2022-11-14T21:26:07.946Z,63.70
2022-11-14T21:28:40.975Z,62.70
2022-11-14T21:31:21.549Z,56.60
2022-11-14T21:33:56.632Z,57.20
2022-11-14T21:36:46.576Z,47.00
2022-11-14T21:39:18.794Z,52.60
2022-11-14T21:41:50.540Z,52.10
2022-11-14T21:44:22.420Z,46.30
2022-11-14T21:46:55.825Z,61.80
2022-11-14T21:49:27.361Z,55.40
2022-11-14T21:51:59.039Z,46.60
2022-11-14T21:54:30.556Z,50.60
2022-11-14T21:57:05.605Z,55.10
2022-11-14T21:59:41.202Z,53.80
2022-11-14T22:02:31.813Z,48.70
2022-11-14T22:05:03.345Z,49.10
2022-11-14T22:07:34.906Z,48.90
2022-11-14T22:10:07.938Z,46.40
2022-11-14T22:12:39.442Z,41.70
2022-11-14T22:15:12.042Z,46.90
2022-11-14T22:17:43.561Z,49.40
2022-11-14T22:20:16.043Z,46.30
2022-11-14T22:22:47.606Z,38.40
2022-11-14T22:25:19.164Z,36.30
2022-11-14T22:27:50.767Z,37.50
2022-11-14T22:30:23.922Z,37.10
2022-11-14T22:32:55.629Z,33.90
2022-11-14T22:35:27.227Z,37.30
2022-11-14T22:37:58.728Z,42.30
2022-11-14T22:40:30.810Z,41.20
2022-11-14T22:43:03.536Z,43.60
2022-11-14T22:45:35.016Z,47.00
2022-11-14T22:48:07.071Z,46.00
2022-11-14T22:50:38.556Z,46.50
2022-11-14T22:53:10.057Z,39.00
2022-11-14T22:55:49.279Z,37.40
2022-11-14T22:58:20.927Z,39.90
2022-11-14T23:00:52.891Z,39.70
2022-11-14T23:03:24.698Z,33.10
2022-11-14T23:05:56.290Z,38.40
2022-11-14T23:08:27.812Z,40.90
2022-11-14T23:11:06.415Z,41.70
2022-11-14T23:13:41.840Z,40.30
2022-11-14T23:16:14.898Z,42.20
2022-11-14T23:18:46.655Z,41.40
2022-11-14T23:21:21.180Z,39.80
2022-11-14T23:23:57.067Z,33.40
2022-11-14T23:26:29.733Z,35.10
2022-11-14T23:29:02.005Z,34.10
2022-11-14T23:31:33.498Z,38.00
2022-11-14T23:34:04.994Z,43.80
2022-11-14T23:36:36.524Z,43.20
2022-11-14T23:39:08.037Z,45.00
2022-11-14T23:41:39.537Z,43.60
2022-11-14T23:44:11.046Z,40.80
2022-11-14T23:46:42.559Z,42.30
2022-11-14T23:49:14.146Z,43.60
2022-11-14T23:51:45.642Z,46.20
2022-11-14T23:54:17.157Z,37.30
2022-11-14T23:56:48.766Z,31.50
2022-11-14T23:59:20.281Z,37.30
